Portada
METAR-TAF:

METAR-TAF

Aeroports :

Ilam, Iran

latitud: 33-35-09N, longitud: 046-24-20E, altitud: 1334 m

Observació

L'informe es va fer fa 38 minuts, a les 18:00 UTC
Vent 4 kt del Est
Temperatura 2°C
Humitat 60%
Pressió 1025 hPa
Visibilitat 10 km o més
sense núvols per sota de 1500 mi sense presència de cumulonimbus.

METAR: OICI 241800Z 09004KT CAVOK 02/M05 Q1024 A3026

Hora: 22:08 (18:38 UTC)

Pronòstic

L'informe es va fer fa 1 hora i 28 minuts, a les 17:10 UTC
Pronòstic vàlid del 24 a les 18 UTC al 25 a les 24 UTC
Vent 8 kt del Est/Sud-Est
Visibilitat: 7000 m

TAF: OICI 241710Z 2418/2524 12008KT 7000 NSC

Observacions i pronòstics meteorològics de més de 4000 aeroports (METAR i TAF).

Les estacions disponibles són els punts grocs i vermells al mapa.

Posi el ratolí al punt desitjat per veure el nom de l'estació.

Feu clic per veure les observacions i els pronòstics meteorològics.

Per canviar el mapa: feu clic els botons verds amb una creu de color negre per apropar; al botó verd amb un guió per allunyar la imatge; o en les fletxes verdes per a mapes adjacents.


METAR-TAF: